createdAt,value
2023-03-11T00:04:18.661Z,0.85
2023-03-11T00:09:25.129Z,0.68
2023-03-11T00:14:38.096Z,1.10
2023-03-11T00:19:43.864Z,1.00
2023-03-11T00:24:52.050Z,1.25
2023-03-11T00:29:56.874Z,0.82
2023-03-11T00:35:00.822Z,1.10
2023-03-11T00:40:11.246Z,0.98
2023-03-11T00:45:15.135Z,0.85
2023-03-11T00:50:23.285Z,1.35
2023-03-11T00:55:29.424Z,0.75
2023-03-11T01:00:34.396Z,1.10
2023-03-11T01:05:40.805Z,1.35
2023-03-11T01:10:45.646Z,0.90
2023-03-11T01:15:50.371Z,0.70
2023-03-11T01:20:57.211Z,1.60
2023-03-11T01:26:04.875Z,1.35
2023-03-11T01:31:12.557Z,1.33
2023-03-11T01:36:16.719Z,1.67
2023-03-11T01:41:21.948Z,1.67
2023-03-11T01:46:26.498Z,1.50
2023-03-11T01:51:36.369Z,1.25
2023-03-11T01:56:43.109Z,1.48
2023-03-11T02:01:51.075Z,1.52
2023-03-11T02:07:01.265Z,1.20
2023-03-11T02:12:09.538Z,1.48
2023-03-11T02:17:13.479Z,1.08
2023-03-11T02:22:19.416Z,1.00
2023-03-11T02:27:25.507Z,1.35
2023-03-11T02:32:33.392Z,1.50
2023-03-11T02:37:37.221Z,1.40
2023-03-11T02:42:44.678Z,1.60
2023-03-11T02:47:48.213Z,1.50
2023-03-11T02:52:53.190Z,2.10
2023-03-11T02:58:02.703Z,2.22
2023-03-11T03:03:06.303Z,1.90
2023-03-11T03:08:13.171Z,1.90
2023-03-11T03:13:20.369Z,1.60
2023-03-11T03:18:27.346Z,1.70
2023-03-11T03:23:35.160Z,1.20
2023-03-11T03:28:41.954Z,1.58
2023-03-11T03:33:45.372Z,1.20
2023-03-11T03:38:48.582Z,1.45
2023-03-11T03:43:54.777Z,1.40
2023-03-11T03:48:58.620Z,1.40
2023-03-11T03:54:03.814Z,1.90
2023-03-11T03:59:09.777Z,2.08
2023-03-11T04:04:23.613Z,1.80
2023-03-11T04:09:27.454Z,2.07
2023-03-11T04:14:33.134Z,1.58
2023-03-11T04:19:37.849Z,2.40
2023-03-11T04:24:41.780Z,1.85
2023-03-11T04:29:47.668Z,1.67
2023-03-11T04:34:52.608Z,2.17
2023-03-11T04:39:59.458Z,1.02
2023-03-11T04:45:05.056Z,1.40
2023-03-11T04:50:11.977Z,1.00
2023-03-11T04:55:16.308Z,0.80
2023-03-11T05:00:25.209Z,1.00
2023-03-11T05:05:39.019Z,1.60
2023-03-11T05:10:43.175Z,1.55
2023-03-11T05:15:49.074Z,1.60
2023-03-11T05:20:55.289Z,2.05
2023-03-11T05:26:04.657Z,2.08
2023-03-11T05:31:18.196Z,1.83
2023-03-11T05:36:23.944Z,1.55
2023-03-11T05:41:28.579Z,1.50
2023-03-11T05:46:33.792Z,1.77
2023-03-11T05:51:42.579Z,1.88
2023-03-11T05:56:47.314Z,2.13
2023-03-11T06:01:55.367Z,1.00
2023-03-11T06:07:02.141Z,1.83
2023-03-11T06:12:10.288Z,1.80
2023-03-11T06:17:41.768Z,1.58
2023-03-11T06:22:46.153Z,1.00
2023-03-11T06:27:51.522Z,1.47
2023-03-11T06:32:58.329Z,1.40
2023-03-11T06:38:02.173Z,2.05
2023-03-11T06:43:05.815Z,2.60
2023-03-11T06:48:14.455Z,1.98
2023-03-11T06:53:17.924Z,1.92
2023-03-11T06:58:21.373Z,2.70
2023-03-11T07:03:31.574Z,2.28
2023-03-11T07:08:36.140Z,2.40
2023-03-11T07:13:40.435Z,2.67
2023-03-11T07:18:50.376Z,2.58
2023-03-11T07:23:55.605Z,2.45
2023-03-11T07:29:01.373Z,2.58
2023-03-11T07:34:11.160Z,2.63
2023-03-11T07:44:22.790Z,2.65
2023-03-11T07:49:27.853Z,3.05
2023-03-11T07:54:31.448Z,2.20
2023-03-11T07:59:35.077Z,2.20
2023-03-11T08:04:44.927Z,2.40
2023-03-11T08:09:50.514Z,2.00
2023-03-11T08:14:57.263Z,2.30
2023-03-11T08:20:02.042Z,2.63
2023-03-11T08:25:06.776Z,2.50
2023-03-11T08:30:12.965Z,2.95
2023-03-11T08:35:17.936Z,3.05
2023-03-11T08:40:23.107Z,2.70
2023-03-11T08:45:26.345Z,2.70
2023-03-11T08:50:53.840Z,2.60
2023-03-11T08:56:01.531Z,2.38
2023-03-11T09:01:14.115Z,2.28
2023-03-11T09:06:21.899Z,2.15
2023-03-11T09:11:26.625Z,2.00
2023-03-11T09:16:33.308Z,1.80
2023-03-11T09:21:40.680Z,1.45
2023-03-11T09:26:49.805Z,1.23
2023-03-11T09:31:55.553Z,1.67
2023-03-11T09:37:01.712Z,1.48
2023-03-11T09:42:07.665Z,1.75
2023-03-11T09:47:31.215Z,1.52
2023-03-11T09:52:39.732Z,1.50
2023-03-11T09:57:43.598Z,1.73
2023-03-11T10:02:48.321Z,1.40
2023-03-11T10:07:56.635Z,1.50
2023-03-11T10:13:04.400Z,1.40
2023-03-11T10:18:19.321Z,1.40
2023-03-11T10:23:27.396Z,1.40
2023-03-11T10:28:34.603Z,1.40
2023-03-11T10:33:41.515Z,1.30
2023-03-11T10:38:50.011Z,1.45
2023-03-11T10:44:04.368Z,1.00
2023-03-11T10:49:24.131Z,1.08
2023-03-11T10:54:31.579Z,1.48
2023-03-11T10:59:37.594Z,1.20
2023-03-11T11:04:42.266Z,1.27
2023-03-11T11:10:00.255Z,1.05
2023-03-11T11:15:03.533Z,1.27
2023-03-11T11:20:15.418Z,1.30
2023-03-11T11:30:31.642Z,1.30
2023-03-11T11:35:36.406Z,1.10
2023-03-11T11:40:40.136Z,1.00
2023-03-11T11:45:49.278Z,1.38
2023-03-11T11:50:54.558Z,1.25
2023-03-11T11:55:58.405Z,1.30
2023-03-11T12:01:19.031Z,1.10
2023-03-11T12:06:28.422Z,1.00
2023-03-11T12:11:36.781Z,1.33
2023-03-11T12:16:47.858Z,0.90
2023-03-11T12:22:40.034Z,1.10
2023-03-11T12:27:45.228Z,1.13
2023-03-11T12:32:51.847Z,1.13
2023-03-11T12:38:05.696Z,1.13
2023-03-11T12:43:42.609Z,1.17
2023-03-11T12:48:51.936Z,1.30
2023-03-11T12:53:58.846Z,1.38
2023-03-11T12:59:24.818Z,1.13
2023-03-11T13:04:56.837Z,1.05
2023-03-11T13:10:15.755Z,1.10
2023-03-11T13:15:39.427Z,1.23
2023-03-11T13:21:02.047Z,1.20
2023-03-11T13:26:22.203Z,1.20
2023-03-11T13:31:40.769Z,0.85
2023-03-11T13:37:08.110Z,1.10
2023-03-11T13:42:19.052Z,1.20
2023-03-11T13:47:46.792Z,1.33
2023-03-11T13:52:56.125Z,1.40
2023-03-11T13:58:03.227Z,1.40
2023-03-11T14:03:13.187Z,1.30
2023-03-11T14:08:25.883Z,1.40
2023-03-11T14:13:39.679Z,1.35
2023-03-11T14:18:46.664Z,1.52
2023-03-11T14:23:54.484Z,1.40
2023-03-11T14:29:11.447Z,1.02
2023-03-11T14:34:20.449Z,1.10
2023-03-11T14:39:27.875Z,1.30
2023-03-11T14:44:35.390Z,1.20
2023-03-11T14:49:39.602Z,1.10
2023-03-11T14:54:46.076Z,1.00
2023-03-11T14:59:52.813Z,1.00
2023-03-11T15:04:58.743Z,0.90
2023-03-11T15:10:08.205Z,1.30
2023-03-11T15:15:24.205Z,0.93
2023-03-11T15:20:31.475Z,1.48
2023-03-11T15:25:41.054Z,1.27
2023-03-11T15:31:16.975Z,1.20
2023-03-11T15:36:31.670Z,1.00
2023-03-11T15:41:36.821Z,0.90
2023-03-11T15:46:55.824Z,0.90
2023-03-11T15:52:10.522Z,1.33
2023-03-11T15:57:24.441Z,0.98
2023-03-11T16:02:33.660Z,1.20
2023-03-11T16:07:40.047Z,1.02
2023-03-11T16:12:46.765Z,1.40
2023-03-11T16:17:51.620Z,1.25
2023-03-11T16:22:58.810Z,0.90
2023-03-11T16:28:03.939Z,1.20
2023-03-11T16:33:10.872Z,1.10
2023-03-11T16:38:14.797Z,1.20
2023-03-11T16:43:30.329Z,1.25
2023-03-11T16:48:37.149Z,1.30
2023-03-11T16:53:50.636Z,1.30
2023-03-11T16:59:25.443Z,1.05
2023-03-11T17:04:29.724Z,1.30
2023-03-11T17:10:18.536Z,1.33
2023-03-11T17:15:45.957Z,1.52
2023-03-11T17:20:51.968Z,1.38
2023-03-11T17:25:56.146Z,1.45
2023-03-11T17:31:07.035Z,1.10
2023-03-11T17:36:13.229Z,1.30
2023-03-11T17:41:25.230Z,1.60
2023-03-11T17:46:33.359Z,1.65
2023-03-11T17:51:40.133Z,11.82
2023-03-11T17:56:45.192Z,2.80
2023-03-11T18:02:06.989Z,3.58
2023-03-11T18:12:31.145Z,4.28
2023-03-11T18:17:38.136Z,2.72
2023-03-11T18:22:48.532Z,3.75
2023-03-11T18:27:58.337Z,3.83
2023-03-11T18:38:11.902Z,2.72
2023-03-11T18:43:16.736Z,4.88
2023-03-11T18:48:33.628Z,5.45
2023-03-11T18:53:37.878Z,4.50
2023-03-11T18:58:48.121Z,2.47
2023-03-11T19:04:02.016Z,2.60
2023-03-11T19:09:06.913Z,3.10
2023-03-11T19:14:11.445Z,2.28
2023-03-11T19:24:50.319Z,2.22
2023-03-11T19:29:59.057Z,2.60
2023-03-11T19:35:35.689Z,1.60
2023-03-11T19:40:42.221Z,1.40
2023-03-11T19:45:56.061Z,2.90
2023-03-11T19:51:02.495Z,2.35
2023-03-11T19:56:07.723Z,1.90
2023-03-11T20:01:18.805Z,1.50
2023-03-11T20:06:34.262Z,2.13
2023-03-11T20:11:41.042Z,2.15
2023-03-11T20:16:49.442Z,3.08
2023-03-11T20:22:03.184Z,1.75
2023-03-11T20:27:09.356Z,1.83
2023-03-11T20:32:13.596Z,1.67
2023-03-11T20:37:23.455Z,1.48
2023-03-11T20:47:34.731Z,2.53
2023-03-11T20:52:40.592Z,13.10
2023-03-11T20:57:44.310Z,7.50
2023-03-11T21:02:52.136Z,4.95
2023-03-11T21:08:01.369Z,5.65
2023-03-11T21:13:10.585Z,5.72
2023-03-11T21:18:14.442Z,7.15
2023-03-11T21:23:25.721Z,8.07
2023-03-11T21:28:29.717Z,5.40
2023-03-11T21:33:33.578Z,3.13
2023-03-11T21:38:46.897Z,3.47
2023-03-11T21:43:57.420Z,2.28
2023-03-11T21:49:02.390Z,3.60
2023-03-11T21:54:11.252Z,5.68
2023-03-11T21:59:27.275Z,6.07
2023-03-11T22:04:34.735Z,3.63
2023-03-11T22:09:41.092Z,3.72
2023-03-11T22:14:52.697Z,2.90
2023-03-11T22:19:57.253Z,2.70
2023-03-11T22:25:04.589Z,3.30
2023-03-11T22:30:11.972Z,4.60
2023-03-11T22:35:16.238Z,3.70
2023-03-11T22:40:21.702Z,4.70
2023-03-11T22:45:25.980Z,3.70
2023-03-11T22:50:31.181Z,3.63
2023-03-11T22:55:40.685Z,4.05
2023-03-11T23:00:45.173Z,5.45
2023-03-11T23:05:50.946Z,5.53
2023-03-11T23:10:59.248Z,4.68
2023-03-11T23:16:08.543Z,4.80
2023-03-11T23:21:16.977Z,5.00
2023-03-11T23:26:47.366Z,4.75
2023-03-11T23:31:55.047Z,4.03
2023-03-11T23:36:59.493Z,3.95
2023-03-11T23:42:18.598Z,4.75
2023-03-11T23:47:29.009Z,4.57
2023-03-11T23:52:41.926Z,4.38
2023-03-11T23:57:53.889Z,4.63
